Time;durP1;ratioP1;P1;durP2;ratioP2;P2;SDS_P1;SDS_P2;PMS_P1;PMS_P2;Temp;Humidity;BMP_temperature;BMP_pressure;BME280_temperature;BME280_humidity;BME280_pressure;Samples;Min_cycle;Max_cycle;Signal;HPM_P1;HPM_P2
2023/06/12 00:00:42;;;;;;;6.60;5.40;;;;;;;;;;4991182;28;20740;-74
2023/06/12 00:03:08;;;;;;;6.53;5.75;;;;;;;;;;5011226;28;20053;-73
2023/06/12 00:05:33;;;;;;;9.50;6.88;;;;;;;;;;4998567;28;20160;-74
2023/06/12 00:08:00;;;;;;;5.15;4.72;;;;;;;;;;5012840;28;20529;-74
2023/06/12 00:10:26;;;;;;;6.07;5.25;;;;;;;;;;4998794;28;20033;-74
2023/06/12 00:12:52;;;;;;;6.68;5.82;;;;;;;;;;5009034;28;20045;-74
2023/06/12 00:15:17;;;;;;;4.65;4.25;;;;;;;;;;4975313;28;20132;-74
2023/06/12 00:17:43;;;;;;;6.55;5.22;;;;;;;;;;5008635;28;20125;-74
2023/06/12 00:20:09;;;;;;;4.30;3.50;;;;;;;;;;4995331;28;20041;-74
2023/06/12 00:22:40;;;;;;;7.07;5.75;;;;;;;;;;4996588;28;20117;-74
2023/06/12 00:25:07;;;;;;;8.45;6.97;;;;;;;;;;4993861;28;20042;-73
2023/06/12 00:27:33;;;;;;;6.03;5.43;;;;;;;;;;4995306;28;20042;-73
2023/06/12 00:29:58;;;;;;;6.93;5.88;;;;;;;;;;4987730;28;20048;-73
2023/06/12 00:32:23;;;;;;;4.47;4.00;;;;;;;;;;5012830;28;20517;-73
2023/06/12 00:34:49;;;;;;;5.28;4.78;;;;;;;;;;5012247;28;20117;-73
2023/06/12 00:37:17;;;;;;;4.57;4.05;;;;;;;;;;5013115;28;20037;-73
2023/06/12 00:39:46;;;;;;;6.55;5.45;;;;;;;;;;5014032;28;20041;-73
2023/06/12 00:42:11;;;;;;;8.13;7.32;;;;;;;;;;4971940;28;20041;-73
2023/06/12 00:44:37;;;;;;;6.57;5.65;;;;;;;;;;4999702;28;20541;-73
2023/06/12 00:47:05;;;;;;;7.70;6.90;;;;;;;;;;4998024;28;20045;-73
2023/06/12 00:49:30;;;;;;;4.63;4.07;;;;;;;;;;5002174;28;20033;-73
2023/06/12 00:51:56;;;;;;;7.22;6.45;;;;;;;;;;5003242;28;20444;-73
2023/06/12 00:54:22;;;;;;;8.30;6.90;;;;;;;;;;4996196;28;20066;-74
2023/06/12 00:56:48;;;;;;;6.10;5.10;;;;;;;;;;4985646;28;20440;-74
2023/06/12 00:59:13;;;;;;;7.90;7.00;;;;;;;;;;4998018;28;20029;-73
2023/06/12 01:01:39;;;;;;;8.35;7.13;;;;;;;;;;5011924;28;20382;-73
2023/06/12 01:04:04;;;;;;;8.20;6.72;;;;;;;;;;5009617;28;20045;-73
2023/06/12 01:06:44;;;;;;;7.47;6.22;;;;;;;;;;5014976;28;20075;-73
2023/06/12 01:09:22;;;;;;;6.75;6.05;;;;;;;;;;4985506;28;20044;-74
2023/06/12 01:11:48;;;;;;;8.40;7.57;;;;;;;;;;4990867;28;20037;-74
2023/06/12 01:14:17;;;;;;;8.65;7.13;;;;;;;;;;4995429;28;20532;-73
2023/06/12 01:16:44;;;;;;;4.60;4.13;;;;;;;;;;4988327;28;20064;-74
2023/06/12 01:19:10;;;;;;;7.72;6.90;;;;;;;;;;5014446;28;20032;-74
2023/06/12 01:21:40;;;;;;;8.15;6.20;;;;;;;;;;5002180;28;20038;-74
2023/06/12 01:24:08;;;;;;;6.40;5.55;;;;;;;;;;5007971;28;20498;-74
2023/06/12 01:27:17;;;;;;;5.53;5.03;;;;;;;;;;4995867;28;20437;-73
2023/06/12 01:30:03;;;;;;;6.78;5.15;;;;;;;;;;5006077;28;20576;-74
2023/06/12 01:32:30;;;;;;;5.50;4.90;;;;;;;;;;4968972;28;20087;-73
2023/06/12 01:35:08;;;;;;;7.75;6.95;;;;;;;;;;5010800;28;20038;-73
2023/06/12 01:37:44;;;;;;;6.53;5.90;;;;;;;;;;4982854;28;20069;-73
2023/06/12 01:40:12;;;;;;;6.45;5.60;;;;;;;;;;4988750;28;20526;-74
2023/06/12 01:42:39;;;;;;;6.72;5.25;;;;;;;;;;4988012;28;20137;-76
2023/06/12 01:45:05;;;;;;;6.28;5.68;;;;;;;;;;4984264;28;20019;-73
2023/06/12 01:47:31;;;;;;;6.65;5.70;;;;;;;;;;4984698;28;20030;-73
2023/06/12 01:49:56;;;;;;;5.38;4.80;;;;;;;;;;4980155;28;20018;-74
2023/06/12 01:52:22;;;;;;;5.60;4.47;;;;;;;;;;4984832;28;20026;-73
2023/06/12 01:54:47;;;;;;;8.80;6.25;;;;;;;;;;4980694;28;20034;-74
2023/06/12 01:57:14;;;;;;;6.20;4.88;;;;;;;;;;4986834;28;20038;-73
2023/06/12 01:59:39;;;;;;;7.10;6.38;;;;;;;;;;4980972;28;20030;-73
2023/06/12 02:02:05;;;;;;;6.13;5.18;;;;;;;;;;4980259;28;20034;-73
2023/06/12 02:04:31;;;;;;;5.90;4.80;;;;;;;;;;4981213;28;20296;-73
2023/06/12 02:06:56;;;;;;;7.57;6.38;;;;;;;;;;4981133;28;20037;-73
2023/06/12 02:09:21;;;;;;;6.90;5.60;;;;;;;;;;4983825;28;20502;-73
2023/06/12 02:11:48;;;;;;;5.25;4.75;;;;;;;;;;4980192;28;20109;-73
2023/06/12 02:14:13;;;;;;;4.82;4.43;;;;;;;;;;4979788;28;20026;-73
2023/06/12 02:16:39;;;;;;;7.25;5.43;;;;;;;;;;4986299;28;20042;-73
2023/06/12 02:19:04;;;;;;;8.43;6.03;;;;;;;;;;4983633;28;20027;-73
2023/06/12 02:21:30;;;;;;;7.47;6.68;;;;;;;;;;4981530;28;20094;-73
2023/06/12 02:23:55;;;;;;;4.53;4.13;;;;;;;;;;4979718;28;20041;-73
2023/06/12 02:26:20;;;;;;;5.63;5.03;;;;;;;;;;4981247;28;20027;-73
2023/06/12 02:29:04;;;;;;;6.03;4.75;;;;;;;;;;4986110;28;20430;-73
2023/06/12 02:31:30;;;;;;;5.72;5.15;;;;;;;;;;4984898;28;20026;-73
2023/06/12 02:33:55;;;;;;;6.80;5.57;;;;;;;;;;4986672;28;20111;-73
2023/06/12 02:36:20;;;;;;;6.25;5.55;;;;;;;;;;4993029;28;20241;-73
2023/06/12 02:38:46;;;;;;;5.70;4.72;;;;;;;;;;4983549;28;20368;-73
2023/06/12 02:41:12;;;;;;;5.40;4.50;;;;;;;;;;4984683;28;20103;-73
2023/06/12 02:43:38;;;;;;;7.45;5.97;;;;;;;;;;4988010;28;20030;-73
2023/06/12 02:46:03;;;;;;;7.53;6.30;;;;;;;;;;4993667;28;20022;-73
2023/06/12 02:48:29;;;;;;;7.38;6.68;;;;;;;;;;4984387;28;20041;-73
2023/06/12 02:50:54;;;;;;;7.55;6.78;;;;;;;;;;4982749;28;20510;-73
2023/06/12 02:53:19;;;;;;;7.93;6.35;;;;;;;;;;4986312;28;20022;-73
2023/06/12 02:55:45;;;;;;;8.95;6.97;;;;;;;;;;4996388;28;20359;-73
2023/06/12 02:58:11;;;;;;;8.23;6.60;;;;;;;;;;4998374;28;20058;-73
2023/06/12 03:00:36;;;;;;;5.85;5.25;;;;;;;;;;4983564;28;20382;-73
2023/06/12 03:03:02;;;;;;;6.90;6.03;;;;;;;;;;4986234;28;20038;-73
2023/06/12 03:05:28;;;;;;;8.98;6.50;;;;;;;;;;4990165;28;20022;-73
2023/06/12 03:07:54;;;;;;;8.80;7.28;;;;;;;;;;4982329;28;20367;-73
2023/06/12 03:10:20;;;;;;;9.57;6.38;;;;;;;;;;4982212;28;20022;-73
2023/06/12 03:12:45;;;;;;;8.15;7.05;;;;;;;;;;4987837;28;20045;-73
2023/06/12 03:15:14;;;;;;;10.80;7.72;;;;;;;;;;4982828;28;20033;-73
2023/06/12 03:17:40;;;;;;;7.28;6.05;;;;;;;;;;4986123;28;20516;-73
2023/06/12 03:20:06;;;;;;;8.98;7.30;;;;;;;;;;4983901;28;20035;-73
2023/06/12 03:22:31;;;;;;;8.25;6.95;;;;;;;;;;4983678;28;20038;-73
2023/06/12 03:24:57;;;;;;;5.68;5.13;;;;;;;;;;4988245;28;20034;-72
2023/06/12 03:27:22;;;;;;;7.00;5.97;;;;;;;;;;4986776;28;20138;-72
2023/06/12 03:29:48;;;;;;;6.68;5.88;;;;;;;;;;4982788;28;20014;-72
2023/06/12 03:32:14;;;;;;;8.80;5.75;;;;;;;;;;4982033;28;20176;-73
2023/06/12 03:34:39;;;;;;;6.40;5.80;;;;;;;;;;4985708;28;20533;-72
2023/06/12 03:37:05;;;;;;;6.45;5.65;;;;;;;;;;4989817;28;20026;-73
2023/06/12 03:39:30;;;;;;;8.73;7.60;;;;;;;;;;4986249;28;20512;-72
2023/06/12 03:41:57;;;;;;;7.47;5.70;;;;;;;;;;4984018;28;20037;-73
2023/06/12 03:44:23;;;;;;;7.97;6.68;;;;;;;;;;4985647;28;20066;-75
2023/06/12 03:46:48;;;;;;;8.48;7.18;;;;;;;;;;4983589;28;20120;-75
2023/06/12 03:49:14;;;;;;;7.63;6.22;;;;;;;;;;4985303;28;20105;-75
2023/06/12 03:51:39;;;;;;;6.30;5.70;;;;;;;;;;4998955;22;20129;-74
2023/06/12 03:54:06;;;;;;;6.05;5.47;;;;;;;;;;4993323;28;20489;-75
2023/06/12 03:56:31;;;;;;;8.40;6.95;;;;;;;;;;4991533;28;20033;-74
2023/06/12 03:58:57;;;;;;;7.57;6.50;;;;;;;;;;4991775;28;20030;-74
2023/06/12 04:01:22;;;;;;;6.18;5.57;;;;;;;;;;4969634;28;20058;-74
2023/06/12 04:03:48;;;;;;;5.55;5.05;;;;;;;;;;4968123;28;20022;-74
2023/06/12 04:06:14;;;;;;;7.60;6.00;;;;;;;;;;4970906;28;20157;-74
2023/06/12 04:08:40;;;;;;;7.90;6.93;;;;;;;;;;4978485;28;20057;-75
2023/06/12 04:11:09;;;;;;;7.30;6.32;;;;;;;;;;4981296;28;20116;-74
2023/06/12 04:13:35;;;;;;;8.10;6.63;;;;;;;;;;4971711;28;20395;-75
2023/06/12 04:16:00;;;;;;;8.30;6.88;;;;;;;;;;4968712;28;20027;-75
2023/06/12 04:18:25;;;;;;;9.10;7.20;;;;;;;;;;4966121;28;20523;-74
2023/06/12 04:20:51;;;;;;;7.97;7.18;;;;;;;;;;4979142;28;20026;-74
2023/06/12 04:23:17;;;;;;;9.05;8.13;;;;;;;;;;4971346;28;20049;-74
2023/06/12 04:25:44;;;;;;;8.32;6.93;;;;;;;;;;4957269;28;20275;-74
2023/06/12 04:28:21;;;;;;;7.30;6.45;;;;;;;;;;4955165;28;20074;-74
2023/06/12 04:30:46;;;;;;;9.80;7.68;;;;;;;;;;4961385;28;20022;-74
2023/06/12 04:33:12;;;;;;;9.05;7.97;;;;;;;;;;4963447;28;20031;-74
2023/06/12 04:35:37;;;;;;;10.65;7.68;;;;;;;;;;4969045;28;20112;-74
2023/06/12 04:38:05;;;;;;;9.93;7.35;;;;;;;;;;4965212;28;20538;-74
2023/06/12 04:40:35;;;;;;;10.48;8.00;;;;;;;;;;4962455;28;20038;-74
2023/06/12 04:43:03;;;;;;;10.80;8.10;;;;;;;;;;4963872;28;20649;-74
2023/06/12 04:45:32;;;;;;;9.05;7.88;;;;;;;;;;4977740;28;20092;-74
2023/06/12 04:47:57;;;;;;;8.38;7.55;;;;;;;;;;4969134;28;20124;-74
2023/06/12 04:50:23;;;;;;;11.30;8.50;;;;;;;;;;4956503;28;20499;-74
2023/06/12 04:52:50;;;;;;;10.80;8.20;;;;;;;;;;4964549;28;20447;-75
2023/06/12 04:55:20;;;;;;;9.50;7.53;;;;;;;;;;4959549;28;20042;-74
2023/06/12 04:57:47;;;;;;;8.77;7.57;;;;;;;;;;4965497;28;20038;-74
2023/06/12 05:00:15;;;;;;;11.38;7.63;;;;;;;;;;4960221;28;20035;-75
2023/06/12 05:02:41;;;;;;;8.63;7.72;;;;;;;;;;4953732;28;20038;-74
2023/06/12 05:05:07;;;;;;;9.60;8.25;;;;;;;;;;4969835;28;20038;-74
2023/06/12 05:07:35;;;;;;;13.20;8.23;;;;;;;;;;4955299;28;20046;-74
2023/06/12 05:10:01;;;;;;;8.55;7.45;;;;;;;;;;4969397;28;20050;-75
2023/06/12 05:12:26;;;;;;;10.20;8.10;;;;;;;;;;4967330;28;21418;-76
2023/06/12 05:14:52;;;;;;;10.38;7.80;;;;;;;;;;4966482;28;20125;-76
2023/06/12 05:17:17;;;;;;;9.32;7.82;;;;;;;;;;4953611;28;20047;-75
2023/06/12 05:19:43;;;;;;;9.50;7.63;;;;;;;;;;4925879;28;20431;-74
2023/06/12 05:22:09;;;;;;;10.90;8.35;;;;;;;;;;4951038;28;20095;-74
2023/06/12 05:24:34;;;;;;;10.20;8.05;;;;;;;;;;4963069;28;20050;-75
2023/06/12 05:27:01;;;;;;;9.77;7.75;;;;;;;;;;4967880;28;20061;-76
2023/06/12 05:29:26;;;;;;;10.48;8.55;;;;;;;;;;4949168;28;20146;-75
2023/06/12 05:31:52;;;;;;;10.35;7.65;;;;;;;;;;4968756;28;20140;-75
2023/06/12 05:34:17;;;;;;;9.48;7.38;;;;;;;;;;4969655;28;20462;-76
2023/06/12 05:36:43;;;;;;;9.40;7.95;;;;;;;;;;4966510;28;20059;-75
2023/06/12 05:39:08;;;;;;;8.88;7.53;;;;;;;;;;4960277;28;20048;-75
2023/06/12 05:41:34;;;;;;;11.50;7.97;;;;;;;;;;4939952;28;20046;-75
2023/06/12 05:44:00;;;;;;;8.15;7.22;;;;;;;;;;4952851;28;20069;-75
2023/06/12 05:46:26;;;;;;;10.43;7.57;;;;;;;;;;4959528;28;20042;-75
2023/06/12 05:48:51;;;;;;;10.55;8.35;;;;;;;;;;4964098;28;20421;-76
2023/06/12 05:51:17;;;;;;;11.68;8.20;;;;;;;;;;4965130;28;20042;-75
2023/06/12 05:53:44;;;;;;;11.82;8.10;;;;;;;;;;4949025;28;20065;-75
2023/06/12 05:56:12;;;;;;;8.73;7.28;;;;;;;;;;4960275;28;20153;-75
2023/06/12 05:58:43;;;;;;;9.48;8.48;;;;;;;;;;4969817;28;20292;-75
2023/06/12 06:01:11;;;;;;;9.05;8.07;;;;;;;;;;4963811;28;20047;-75
2023/06/12 06:03:42;;;;;;;9.85;8.48;;;;;;;;;;4959221;28;20085;-75
2023/06/12 06:06:17;;;;;;;10.18;8.23;;;;;;;;;;4978852;28;20046;-75
2023/06/12 06:08:44;;;;;;;8.48;7.57;;;;;;;;;;4959107;28;20038;-75
2023/06/12 06:11:09;;;;;;;8.23;5.65;;;;;;;;;;4967930;28;20510;-75
2023/06/12 06:13:35;;;;;;;10.13;7.72;;;;;;;;;;4975581;28;20054;-75
2023/06/12 06:16:04;;;;;;;9.07;8.18;;;;;;;;;;4944606;28;20034;-75
2023/06/12 06:18:29;;;;;;;10.43;8.25;;;;;;;;;;4961013;28;20569;-75
2023/06/12 06:20:55;;;;;;;6.93;6.22;;;;;;;;;;4974500;28;20042;-75
2023/06/12 06:23:24;;;;;;;9.25;7.53;;;;;;;;;;4978657;28;20052;-75
2023/06/12 06:25:49;;;;;;;10.52;7.80;;;;;;;;;;4968661;28;20466;-75
2023/06/12 06:28:15;;;;;;;9.25;7.88;;;;;;;;;;4939525;28;20313;-75
2023/06/12 06:30:40;;;;;;;8.55;7.47;;;;;;;;;;4956523;28;20042;-75
2023/06/12 06:33:06;;;;;;;9.55;8.52;;;;;;;;;;4973571;28;20038;-75
2023/06/12 06:35:31;;;;;;;10.32;8.65;;;;;;;;;;4961545;28;20046;-75
2023/06/12 06:37:57;;;;;;;10.18;8.10;;;;;;;;;;4979589;28;20414;-75
2023/06/12 06:40:22;;;;;;;11.45;8.38;;;;;;;;;;4973746;28;20487;-75
2023/06/12 06:42:47;;;;;;;9.48;7.93;;;;;;;;;;4956371;28;20125;-75
2023/06/12 06:45:13;;;;;;;10.50;7.85;;;;;;;;;;4978046;28;20083;-75
2023/06/12 06:47:39;;;;;;;9.27;8.27;;;;;;;;;;4968976;28;20402;-75
2023/06/12 06:50:05;;;;;;;9.15;7.45;;;;;;;;;;4962504;28;20058;-75
2023/06/12 06:52:30;;;;;;;9.05;7.82;;;;;;;;;;4972997;28;20605;-75
2023/06/12 06:54:56;;;;;;;10.02;8.20;;;;;;;;;;4953819;28;20034;-75
2023/06/12 06:57:23;;;;;;;7.18;6.28;;;;;;;;;;4960020;28;20038;-75
2023/06/12 06:59:50;;;;;;;9.40;7.95;;;;;;;;;;4972927;28;20041;-75
2023/06/12 07:02:15;;;;;;;8.80;7.88;;;;;;;;;;4959334;28;20120;-75
2023/06/12 07:04:41;;;;;;;8.90;8.00;;;;;;;;;;4959336;28;20084;-75
2023/06/12 07:07:07;;;;;;;9.13;8.23;;;;;;;;;;4974815;28;20038;-75
2023/06/12 07:09:32;;;;;;;9.30;7.55;;;;;;;;;;4974436;28;20046;-75
2023/06/12 07:11:57;;;;;;;7.93;7.07;;;;;;;;;;4948327;28;20296;-75
2023/06/12 07:14:23;;;;;;;9.77;8.05;;;;;;;;;;4968967;28;20046;-75
2023/06/12 07:16:48;;;;;;;9.13;7.60;;;;;;;;;;4958787;28;20053;-75
2023/06/12 07:19:13;;;;;;;10.43;7.88;;;;;;;;;;4979492;28;20073;-75
2023/06/12 07:21:39;;;;;;;6.13;5.53;;;;;;;;;;4970765;28;20042;-75
2023/06/12 07:24:05;;;;;;;7.80;7.10;;;;;;;;;;4965286;28;20090;-75
2023/06/12 07:26:30;;;;;;;10.00;7.75;;;;;;;;;;4959845;28;20047;-75
2023/06/12 07:28:56;;;;;;;8.30;7.40;;;;;;;;;;4974499;28;20050;-75
2023/06/12 07:31:22;;;;;;;9.63;7.40;;;;;;;;;;4955237;28;20046;-75
2023/06/12 07:33:47;;;;;;;8.77;7.65;;;;;;;;;;4928052;28;20515;-75
2023/06/12 07:36:14;;;;;;;9.65;7.53;;;;;;;;;;4950350;28;20038;-75
2023/06/12 07:38:40;;;;;;;9.00;7.70;;;;;;;;;;4953864;28;20556;-75
2023/06/12 07:41:05;;;;;;;9.45;7.68;;;;;;;;;;4953381;28;20041;-75
2023/06/12 07:43:34;;;;;;;8.02;7.32;;;;;;;;;;4970402;28;20034;-75
2023/06/12 07:46:06;;;;;;;8.00;7.20;;;;;;;;;;4960429;28;20184;-75
2023/06/12 07:48:31;;;;;;;7.82;6.80;;;;;;;;;;4965965;28;20173;-75
2023/06/12 07:50:56;;;;;;;7.22;6.18;;;;;;;;;;4953690;28;20141;-75
2023/06/12 07:53:22;;;;;;;7.07;6.32;;;;;;;;;;4963734;28;20050;-75
2023/06/12 07:55:49;;;;;;;8.00;6.30;;;;;;;;;;4934087;28;20034;-75
2023/06/12 07:58:14;;;;;;;6.28;5.68;;;;;;;;;;4963000;28;20046;-75
2023/06/12 08:00:40;;;;;;;8.43;6.35;;;;;;;;;;4959297;28;20046;-75
2023/06/12 08:03:08;;;;;;;6.75;5.82;;;;;;;;;;4971630;28;20422;-75
2023/06/12 08:05:34;;;;;;;7.78;6.30;;;;;;;;;;4958762;28;20041;-76
2023/06/12 08:08:00;;;;;;;7.00;6.30;;;;;;;;;;4974893;28;20037;-75
2023/06/12 08:10:26;;;;;;;7.22;6.50;;;;;;;;;;4969386;28;20064;-75
2023/06/12 08:12:52;;;;;;;8.60;6.35;;;;;;;;;;4943959;28;20470;-75
2023/06/12 08:15:17;;;;;;;6.97;6.28;;;;;;;;;;4973380;28;20524;-75
2023/06/12 08:17:42;;;;;;;6.20;5.60;;;;;;;;;;4969040;28;20046;-75
2023/06/12 08:20:10;;;;;;;8.45;6.03;;;;;;;;;;4934201;28;20041;-76
2023/06/12 08:22:36;;;;;;;5.80;5.30;;;;;;;;;;4968094;28;20134;-76
2023/06/12 08:25:06;;;;;;;6.03;5.38;;;;;;;;;;4973610;28;20038;-75
2023/06/12 08:27:33;;;;;;;6.43;5.45;;;;;;;;;;4949607;28;20502;-75
2023/06/12 08:29:59;;;;;;;5.60;4.80;;;;;;;;;;4975772;28;20137;-75
2023/06/12 08:32:25;;;;;;;6.63;5.07;;;;;;;;;;4952344;28;20043;-76
2023/06/12 08:34:50;;;;;;;5.72;5.13;;;;;;;;;;4935870;28;20042;-76
2023/06/12 08:37:17;;;;;;;6.22;4.97;;;;;;;;;;4966342;28;20371;-76
2023/06/12 08:39:42;;;;;;;7.75;5.03;;;;;;;;;;4949188;28;20044;-76
2023/06/12 08:42:10;;;;;;;4.95;4.55;;;;;;;;;;4953467;28;20044;-76
2023/06/12 08:44:39;;;;;;;6.07;5.07;;;;;;;;;;4966635;28;20594;-76
2023/06/12 08:47:04;;;;;;;8.45;4.85;;;;;;;;;;4944105;28;20416;-75
2023/06/12 08:49:30;;;;;;;5.00;4.50;;;;;;;;;;4951080;28;20053;-75
2023/06/12 08:51:57;;;;;;;7.03;4.30;;;;;;;;;;4971141;28;20379;-75
2023/06/12 08:54:24;;;;;;;5.88;4.35;;;;;;;;;;4954904;28;20046;-75
2023/06/12 08:56:51;;;;;;;4.95;4.00;;;;;;;;;;4968871;28;20046;-75
2023/06/12 08:59:16;;;;;;;5.55;3.90;;;;;;;;;;4976956;28;20125;-75
2023/06/12 09:01:42;;;;;;;4.80;4.32;;;;;;;;;;4957567;28;20146;-75
2023/06/12 09:04:41;;;;;;;5.13;3.95;;;;;;;;;;4951479;28;20034;-75
2023/06/12 09:07:06;;;;;;;5.03;3.50;;;;;;;;;;4921727;28;20046;-75
2023/06/12 09:09:39;;;;;;;4.18;3.78;;;;;;;;;;4977761;28;20128;-75
2023/06/12 09:12:08;;;;;;;4.60;3.85;;;;;;;;;;4963245;28;20480;-75
2023/06/12 09:14:35;;;;;;;5.25;3.63;;;;;;;;;;4963078;28;20114;-75
2023/06/12 09:17:01;;;;;;;5.20;4.10;;;;;;;;;;4957584;28;20043;-75
2023/06/12 09:19:35;;;;;;;4.78;4.13;;;;;;;;;;4944832;28;20510;-75
2023/06/12 09:22:02;;;;;;;5.80;4.22;;;;;;;;;;4969327;28;20553;-75
2023/06/12 09:24:28;;;;;;;4.47;3.40;;;;;;;;;;4962210;28;20468;-75
2023/06/12 09:26:55;;;;;;;4.72;3.08;;;;;;;;;;4966266;28;20042;-75
2023/06/12 09:29:27;;;;;;;3.88;3.53;;;;;;;;;;4977382;28;20026;-75
2023/06/12 09:31:53;;;;;;;3.72;3.10;;;;;;;;;;4953793;28;20038;-75
2023/06/12 09:34:18;;;;;;;3.45;3.03;;;;;;;;;;4956644;28;20042;-75
2023/06/12 09:36:45;;;;;;;3.90;3.30;;;;;;;;;;4940428;28;20054;-76
2023/06/12 09:39:16;;;;;;;3.83;3.50;;;;;;;;;;4966040;28;20042;-75
2023/06/12 09:41:49;;;;;;;4.90;3.45;;;;;;;;;;4967009;28;20054;-75
2023/06/12 09:44:20;;;;;;;5.22;3.45;;;;;;;;;;4945907;28;20113;-75
2023/06/12 09:46:46;;;;;;;4.45;3.13;;;;;;;;;;4969295;28;20042;-75
2023/06/12 09:49:13;;;;;;;4.63;3.70;;;;;;;;;;4936570;28;20173;-76
2023/06/12 09:51:42;;;;;;;4.93;3.40;;;;;;;;;;4969342;28;20059;-76
2023/06/12 09:54:12;;;;;;;3.72;3.40;;;;;;;;;;4968926;28;20139;-76
2023/06/12 09:56:39;;;;;;;4.63;3.65;;;;;;;;;;4958000;28;20044;-76
2023/06/12 09:59:07;;;;;;;3.70;3.10;;;;;;;;;;4944334;28;20046;-77
2023/06/12 10:01:39;;;;;;;4.25;3.45;;;;;;;;;;4966630;28;20050;-76
2023/06/12 10:04:10;;;;;;;7.53;3.70;;;;;;;;;;4958805;28;20038;-76
2023/06/12 10:06:38;;;;;;;5.20;4.00;;;;;;;;;;4950822;28;20145;-76
2023/06/12 10:09:06;;;;;;;4.25;3.75;;;;;;;;;;4956708;28;20045;-76
2023/06/12 10:11:32;;;;;;;5.53;3.42;;;;;;;;;;4965200;28;20039;-76
2023/06/12 10:13:58;;;;;;;4.00;3.42;;;;;;;;;;4950497;28;20642;-76
2023/06/12 10:16:25;;;;;;;4.07;3.78;;;;;;;;;;4944076;28;20042;-77
2023/06/12 10:18:50;;;;;;;4.13;3.58;;;;;;;;;;4953017;28;20548;-76
2023/06/12 10:21:18;;;;;;;5.55;3.70;;;;;;;;;;4963068;28;20701;-76
2023/06/12 10:23:44;;;;;;;4.47;3.70;;;;;;;;;;4918457;28;20507;-75
2023/06/12 10:26:09;;;;;;;4.85;3.45;;;;;;;;;;4941932;28;20043;-75
2023/06/12 10:28:35;;;;;;;4.43;3.53;;;;;;;;;;4961802;28;20046;-76
2023/06/12 10:31:16;;;;;;;4.13;3.28;;;;;;;;;;4969589;28;20481;-75
2023/06/12 10:33:59;;;;;;;;;;;;;;;;;;4963253;28;20065;-76
2023/06/12 10:36:25;;;;;;;5.60;3.53;;;;;;;;;;4932127;28;20334;-76
2023/06/12 10:39:02;;;;;;;4.40;3.55;;;;;;;;;;4969694;28;20132;-76
2023/06/12 10:41:33;;;;;;;3.70;3.33;;;;;;;;;;4970827;28;20053;-76
2023/06/12 10:43:59;;;;;;;5.82;3.33;;;;;;;;;;4927638;28;20048;-75
2023/06/12 10:46:42;;;;;;;5.38;3.20;;;;;;;;;;4974449;28;20108;-76
2023/06/12 10:49:11;;;;;;;3.63;3.10;;;;;;;;;;4950093;28;20038;-75
2023/06/12 10:51:36;;;;;;;4.88;3.33;;;;;;;;;;4976681;28;20112;-76
2023/06/12 10:54:03;;;;;;;4.55;3.45;;;;;;;;;;4969473;28;20041;-75
2023/06/12 10:56:28;;;;;;;3.90;3.28;;;;;;;;;;4969261;28;20632;-75
2023/06/12 10:58:57;;;;;;;4.30;3.28;;;;;;;;;;4956493;28;20117;-76
2023/06/12 11:01:23;;;;;;;4.82;3.70;;;;;;;;;;4973367;28;20136;-76
2023/06/12 11:03:50;;;;;;;4.80;3.17;;;;;;;;;;4941475;28;20047;-76
2023/06/12 11:06:16;;;;;;;7.03;3.50;;;;;;;;;;4952410;28;20117;-76
2023/06/12 11:08:43;;;;;;;4.63;3.60;;;;;;;;;;4937101;28;20038;-76
2023/06/12 11:11:10;;;;;;;3.80;3.50;;;;;;;;;;4961220;28;20392;-76
2023/06/12 11:13:39;;;;;;;3.45;3.15;;;;;;;;;;4967282;28;20046;-75
2023/06/12 11:16:04;;;;;;;3.20;2.90;;;;;;;;;;4934457;28;20515;-76
2023/06/12 11:18:30;;;;;;;5.53;3.70;;;;;;;;;;4960922;28;20050;-76
2023/06/12 11:20:56;;;;;;;3.95;3.00;;;;;;;;;;4945752;28;20451;-76
2023/06/12 11:23:28;;;;;;;3.60;3.30;;;;;;;;;;4966668;28;20077;-76
2023/06/12 11:25:58;;;;;;;3.67;3.08;;;;;;;;;;4955298;28;20030;-76
2023/06/12 11:28:26;;;;;;;4.65;3.03;;;;;;;;;;4961181;28;20053;-76
2023/06/12 11:30:56;;;;;;;5.93;3.30;;;;;;;;;;4919763;28;20122;-76
2023/06/12 11:33:22;;;;;;;5.30;3.40;;;;;;;;;;4961682;28;20042;-76
2023/06/12 11:35:49;;;;;;;3.60;2.78;;;;;;;;;;4936141;28;20034;-76
2023/06/12 11:38:16;;;;;;;3.78;3.22;;;;;;;;;;4974597;28;20042;-75
2023/06/12 11:40:43;;;;;;;3.92;2.80;;;;;;;;;;4977269;28;20041;-75
2023/06/12 11:43:08;;;;;;;3.30;3.00;;;;;;;;;;4968355;28;20037;-76
2023/06/12 11:45:34;;;;;;;4.13;3.00;;;;;;;;;;4978073;28;20052;-76
2023/06/12 11:48:00;;;;;;;4.38;2.70;;;;;;;;;;4966315;28;20149;-76
2023/06/12 11:50:27;;;;;;;7.93;2.90;;;;;;;;;;4973469;28;20466;-76
2023/06/12 11:52:55;;;;;;;3.25;2.80;;;;;;;;;;4972717;28;20398;-75
2023/06/12 11:55:21;;;;;;;3.47;3.17;;;;;;;;;;4970735;28;20056;-76
2023/06/12 11:57:50;;;;;;;3.55;2.80;;;;;;;;;;4944923;28;20122;-75
2023/06/12 12:00:18;;;;;;;4.57;2.80;;;;;;;;;;4958479;28;20526;-76
2023/06/12 12:02:56;;;;;;;4.68;2.92;;;;;;;;;;4966557;28;20054;-75
2023/06/12 12:05:23;;;;;;;4.35;3.15;;;;;;;;;;4962064;28;20042;-75
2023/06/12 12:08:03;;;;;;;5.95;3.47;;;;;;;;;;4950328;28;20134;-75
2023/06/12 12:10:30;;;;;;;5.60;3.13;;;;;;;;;;4957646;28;20462;-75
2023/06/12 12:12:59;;;;;;;4.88;3.10;;;;;;;;;;4950560;28;20054;-76
2023/06/12 12:15:34;;;;;;;7.07;3.25;;;;;;;;;;4955151;28;20113;-75
2023/06/12 12:18:00;;;;;;;4.97;3.45;;;;;;;;;;4940768;28;20045;-75
2023/06/12 12:20:27;;;;;;;4.72;3.33;;;;;;;;;;4971337;28;20067;-75
2023/06/12 12:23:10;;;;;;;5.18;3.50;;;;;;;;;;4941147;28;20043;-75
2023/06/12 12:25:36;;;;;;;3.30;3.00;;;;;;;;;;4933375;28;20142;-75
2023/06/12 12:28:04;;;;;;;3.60;3.30;;;;;;;;;;4971397;28;20214;-75
2023/06/12 12:30:30;;;;;;;5.05;3.63;;;;;;;;;;4964380;28;20210;-75
2023/06/12 12:32:57;;;;;;;5.32;3.67;;;;;;;;;;4962042;28;20034;-76
2023/06/12 12:35:24;;;;;;;4.28;3.53;;;;;;;;;;4948742;28;20064;-75
2023/06/12 12:37:51;;;;;;;3.90;3.60;;;;;;;;;;4936966;28;20034;-76
2023/06/12 12:40:17;;;;;;;5.70;3.47;;;;;;;;;;4974054;28;20068;-75
2023/06/12 12:42:47;;;;;;;3.85;3.45;;;;;;;;;;4967028;28;20049;-75
2023/06/12 12:45:15;;;;;;;4.20;3.83;;;;;;;;;;4969022;28;20045;-75
2023/06/12 12:47:44;;;;;;;5.97;3.63;;;;;;;;;;4964960;28;20073;-75
2023/06/12 12:50:10;;;;;;;6.00;4.10;;;;;;;;;;4972734;28;20046;-75
2023/06/12 12:52:36;;;;;;;4.78;3.67;;;;;;;;;;4937042;28;20046;-75
2023/06/12 12:55:04;;;;;;;5.95;3.70;;;;;;;;;;4967587;28;20530;-75
2023/06/12 12:57:33;;;;;;;4.20;3.83;;;;;;;;;;4956233;28;20046;-75
2023/06/12 13:00:00;;;;;;;4.60;3.83;;;;;;;;;;4937533;28;20601;-75
2023/06/12 13:02:26;;;;;;;4.72;3.95;;;;;;;;;;4951721;28;20338;-75
2023/06/12 13:04:52;;;;;;;6.05;3.90;;;;;;;;;;4958029;28;20555;-76
2023/06/12 13:07:17;;;;;;;4.72;4.00;;;;;;;;;;4969538;28;20120;-75
2023/06/12 13:09:43;;;;;;;5.00;3.65;;;;;;;;;;4972488;28;20062;-75
2023/06/12 13:12:10;;;;;;;5.00;3.58;;;;;;;;;;4955307;28;20720;-75
2023/06/12 13:14:36;;;;;;;5.18;3.80;;;;;;;;;;4947525;28;20489;-75
2023/06/12 13:17:02;;;;;;;4.10;3.70;;;;;;;;;;4972993;28;20102;-75
2023/06/12 13:19:28;;;;;;;4.32;3.80;;;;;;;;;;4961522;28;20047;-75
2023/06/12 13:21:53;;;;;;;5.10;3.88;;;;;;;;;;4955251;28;20056;-75
2023/06/12 13:24:18;;;;;;;4.70;4.18;;;;;;;;;;4957064;28;20053;-75
2023/06/12 13:26:46;;;;;;;4.30;3.70;;;;;;;;;;4969511;28;20042;-75
2023/06/12 13:29:11;;;;;;;6.78;4.47;;;;;;;;;;4936954;28;20040;-75
2023/06/12 13:31:37;;;;;;;5.07;3.65;;;;;;;;;;4954987;28;20053;-75
2023/06/12 13:34:05;;;;;;;4.18;3.78;;;;;;;;;;4960723;28;20577;-75
2023/06/12 13:36:33;;;;;;;5.20;3.97;;;;;;;;;;4968809;28;20053;-75
2023/06/12 13:39:00;;;;;;;4.18;3.63;;;;;;;;;;4950486;28;20041;-75
2023/06/12 13:41:28;;;;;;;8.18;3.70;;;;;;;;;;4938408;28;20067;-75
2023/06/12 13:43:54;;;;;;;5.13;3.60;;;;;;;;;;4954055;28;20507;-75
2023/06/12 13:46:20;;;;;;;5.20;3.65;;;;;;;;;;4963747;28;20050;-75
2023/06/12 13:48:45;;;;;;;5.78;3.70;;;;;;;;;;4970329;28;20049;-75
2023/06/12 13:51:10;;;;;;;3.85;3.30;;;;;;;;;;4953061;28;20042;-75
2023/06/12 13:53:39;;;;;;;3.88;3.47;;;;;;;;;;4966503;28;20172;-75
2023/06/12 13:56:05;;;;;;;4.78;3.33;;;;;;;;;;4952656;28;20076;-75
2023/06/12 13:58:31;;;;;;;3.78;3.38;;;;;;;;;;4956966;28;20068;-75
2023/06/12 14:00:57;;;;;;;5.63;3.85;;;;;;;;;;4932067;28;20546;-75
2023/06/12 14:03:23;;;;;;;3.80;3.50;;;;;;;;;;4937382;28;20056;-75
2023/06/12 14:05:48;;;;;;;5.25;3.60;;;;;;;;;;4956485;28;20126;-75
2023/06/12 14:08:14;;;;;;;4.80;3.67;;;;;;;;;;4940734;28;20511;-75
2023/06/12 14:10:42;;;;;;;5.25;3.47;;;;;;;;;;4946780;28;20069;-75
2023/06/12 14:13:07;;;;;;;4.53;3.55;;;;;;;;;;4964271;28;20042;-76
2023/06/12 14:15:33;;;;;;;4.50;3.58;;;;;;;;;;4966025;28;20045;-75
2023/06/12 14:18:02;;;;;;;4.07;3.42;;;;;;;;;;4968472;28;20500;-75
2023/06/12 14:20:28;;;;;;;4.07;3.55;;;;;;;;;;4946776;28;20031;-75
2023/06/12 14:22:54;;;;;;;5.13;3.80;;;;;;;;;;4943136;28;20554;-75
2023/06/12 14:25:19;;;;;;;4.05;3.47;;;;;;;;;;4951515;28;20577;-75
2023/06/12 14:27:44;;;;;;;3.72;3.33;;;;;;;;;;4969838;28;20062;-75
2023/06/12 14:30:12;;;;;;;5.07;3.72;;;;;;;;;;4972507;28;20103;-75
2023/06/12 14:32:37;;;;;;;4.63;3.50;;;;;;;;;;4965029;28;20061;-75
2023/06/12 14:35:03;;;;;;;4.20;3.80;;;;;;;;;;4950879;28;20035;-75
2023/06/12 14:37:29;;;;;;;5.50;3.70;;;;;;;;;;4958626;28;20658;-75
2023/06/12 14:39:54;;;;;;;7.38;3.70;;;;;;;;;;4969211;28;20038;-75
2023/06/12 14:42:20;;;;;;;6.18;3.83;;;;;;;;;;4963578;28;20042;-75